sensor_id;sensor_type;location;lat;lon;timestamp;P1;durP1;ratioP1;P2;durP2;ratioP2
65315;SDS011;51920;53.952;10.292;2024-02-28T00:02:02;23.73;;;11.07;;
65315;SDS011;51920;53.952;10.292;2024-02-28T00:04:29;24.60;;;11.68;;
65315;SDS011;51920;53.952;10.292;2024-02-28T00:06:56;22.73;;;11.40;;
65315;SDS011;51920;53.952;10.292;2024-02-28T00:09:23;21.85;;;10.63;;
65315;SDS011;51920;53.952;10.292;2024-02-28T00:11:50;24.42;;;12.13;;
65315;SDS011;51920;53.952;10.292;2024-02-28T00:14:17;24.52;;;11.32;;
65315;SDS011;51920;53.952;10.292;2024-02-28T00:16:44;23.90;;;11.43;;
65315;SDS011;51920;53.952;10.292;2024-02-28T00:19:12;23.20;;;11.63;;
65315;SDS011;51920;53.952;10.292;2024-02-28T00:21:40;23.80;;;11.73;;
65315;SDS011;51920;53.952;10.292;2024-02-28T00:24:07;24.20;;;11.77;;
65315;SDS011;51920;53.952;10.292;2024-02-28T00:26:34;26.42;;;11.38;;
65315;SDS011;51920;53.952;10.292;2024-02-28T00:29:01;25.88;;;11.70;;
65315;SDS011;51920;53.952;10.292;2024-02-28T00:31:28;24.23;;;11.50;;
65315;SDS011;51920;53.952;10.292;2024-02-28T00:33:55;26.67;;;12.05;;
65315;SDS011;51920;53.952;10.292;2024-02-28T00:36:22;26.35;;;12.18;;
65315;SDS011;51920;53.952;10.292;2024-02-28T00:38:49;25.80;;;12.23;;
65315;SDS011;51920;53.952;10.292;2024-02-28T00:41:16;27.15;;;12.05;;
65315;SDS011;51920;53.952;10.292;2024-02-28T00:43:43;25.03;;;12.07;;
65315;SDS011;51920;53.952;10.292;2024-02-28T00:46:10;26.80;;;11.82;;
65315;SDS011;51920;53.952;10.292;2024-02-28T00:48:38;25.27;;;12.02;;
65315;SDS011;51920;53.952;10.292;2024-02-28T00:51:06;28.40;;;12.18;;
65315;SDS011;51920;53.952;10.292;2024-02-28T00:53:35;26.67;;;12.57;;
65315;SDS011;51920;53.952;10.292;2024-02-28T00:56:02;27.63;;;12.70;;
65315;SDS011;51920;53.952;10.292;2024-02-28T00:58:30;27.45;;;12.55;;
65315;SDS011;51920;53.952;10.292;2024-02-28T01:00:57;26.92;;;12.75;;
65315;SDS011;51920;53.952;10.292;2024-02-28T01:03:24;28.55;;;12.38;;
65315;SDS011;51920;53.952;10.292;2024-02-28T01:05:51;28.05;;;12.68;;
65315;SDS011;51920;53.952;10.292;2024-02-28T01:08:18;26.97;;;12.43;;
65315;SDS011;51920;53.952;10.292;2024-02-28T01:10:45;25.92;;;12.02;;
65315;SDS011;51920;53.952;10.292;2024-02-28T01:13:13;27.73;;;12.50;;
65315;SDS011;51920;53.952;10.292;2024-02-28T01:15:40;29.27;;;13.00;;
65315;SDS011;51920;53.952;10.292;2024-02-28T01:18:08;29.88;;;13.75;;
65315;SDS011;51920;53.952;10.292;2024-02-28T01:20:36;31.80;;;13.27;;
65315;SDS011;51920;53.952;10.292;2024-02-28T01:23:03;30.42;;;13.60;;
65315;SDS011;51920;53.952;10.292;2024-02-28T01:25:30;29.63;;;13.30;;
65315;SDS011;51920;53.952;10.292;2024-02-28T01:27:57;33.50;;;14.18;;
65315;SDS011;51920;53.952;10.292;2024-02-28T01:30:26;33.15;;;14.52;;
65315;SDS011;51920;53.952;10.292;2024-02-28T01:32:53;32.03;;;13.00;;
65315;SDS011;51920;53.952;10.292;2024-02-28T01:35:20;27.55;;;12.68;;
65315;SDS011;51920;53.952;10.292;2024-02-28T01:37:47;29.58;;;13.70;;
65315;SDS011;51920;53.952;10.292;2024-02-28T01:40:14;28.73;;;12.77;;
65315;SDS011;51920;53.952;10.292;2024-02-28T01:42:42;29.15;;;13.07;;
65315;SDS011;51920;53.952;10.292;2024-02-28T01:45:09;28.27;;;12.97;;
65315;SDS011;51920;53.952;10.292;2024-02-28T01:47:41;27.60;;;12.88;;
65315;SDS011;51920;53.952;10.292;2024-02-28T01:50:09;27.65;;;13.05;;
65315;SDS011;51920;53.952;10.292;2024-02-28T01:52:37;30.80;;;13.20;;
65315;SDS011;51920;53.952;10.292;2024-02-28T01:55:05;30.45;;;13.68;;
65315;SDS011;51920;53.952;10.292;2024-02-28T01:57:33;30.77;;;13.20;;
65315;SDS011;51920;53.952;10.292;2024-02-28T02:00:01;32.95;;;14.02;;
65315;SDS011;51920;53.952;10.292;2024-02-28T02:02:30;32.50;;;13.80;;
65315;SDS011;51920;53.952;10.292;2024-02-28T02:04:56;34.03;;;14.25;;
65315;SDS011;51920;53.952;10.292;2024-02-28T02:07:24;38.28;;;15.50;;
65315;SDS011;51920;53.952;10.292;2024-02-28T02:09:52;32.30;;;14.00;;
65315;SDS011;51920;53.952;10.292;2024-02-28T02:12:19;30.58;;;13.98;;
65315;SDS011;51920;53.952;10.292;2024-02-28T02:14:47;31.95;;;14.65;;
65315;SDS011;51920;53.952;10.292;2024-02-28T02:17:17;30.90;;;13.68;;
65315;SDS011;51920;53.952;10.292;2024-02-28T02:19:44;34.67;;;14.65;;
65315;SDS011;51920;53.952;10.292;2024-02-28T02:22:13;35.97;;;14.40;;
65315;SDS011;51920;53.952;10.292;2024-02-28T02:24:41;32.92;;;13.90;;
65315;SDS011;51920;53.952;10.292;2024-02-28T02:27:08;35.00;;;14.45;;
65315;SDS011;51920;53.952;10.292;2024-02-28T02:29:35;34.78;;;13.75;;
65315;SDS011;51920;53.952;10.292;2024-02-28T02:32:01;37.10;;;14.52;;
65315;SDS011;51920;53.952;10.292;2024-02-28T02:34:28;36.60;;;14.57;;
65315;SDS011;51920;53.952;10.292;2024-02-28T02:36:55;36.75;;;13.18;;
65315;SDS011;51920;53.952;10.292;2024-02-28T02:39:22;38.80;;;13.73;;
65315;SDS011;51920;53.952;10.292;2024-02-28T02:41:49;32.10;;;12.35;;
65315;SDS011;51920;53.952;10.292;2024-02-28T02:44:16;35.35;;;13.85;;
65315;SDS011;51920;53.952;10.292;2024-02-28T02:46:43;30.17;;;11.63;;
65315;SDS011;51920;53.952;10.292;2024-02-28T02:49:10;31.17;;;11.98;;
65315;SDS011;51920;53.952;10.292;2024-02-28T02:51:37;30.05;;;12.25;;
65315;SDS011;51920;53.952;10.292;2024-02-28T02:54:04;30.25;;;11.48;;
65315;SDS011;51920;53.952;10.292;2024-02-28T02:56:31;32.95;;;12.98;;
65315;SDS011;51920;53.952;10.292;2024-02-28T02:58:58;31.10;;;11.50;;
65315;SDS011;51920;53.952;10.292;2024-02-28T03:01:25;31.42;;;11.48;;
65315;SDS011;51920;53.952;10.292;2024-02-28T03:03:52;31.02;;;12.18;;
65315;SDS011;51920;53.952;10.292;2024-02-28T03:06:19;29.58;;;11.35;;
65315;SDS011;51920;53.952;10.292;2024-02-28T03:08:46;31.48;;;12.18;;
65315;SDS011;51920;53.952;10.292;2024-02-28T03:11:13;29.90;;;11.17;;
65315;SDS011;51920;53.952;10.292;2024-02-28T03:13:40;27.60;;;10.65;;
65315;SDS011;51920;53.952;10.292;2024-02-28T03:16:07;31.15;;;11.75;;
65315;SDS011;51920;53.952;10.292;2024-02-28T03:18:34;28.33;;;10.98;;
65315;SDS011;51920;53.952;10.292;2024-02-28T03:21:01;29.15;;;10.73;;
65315;SDS011;51920;53.952;10.292;2024-02-28T03:23:28;30.03;;;11.87;;
65315;SDS011;51920;53.952;10.292;2024-02-28T03:25:55;28.65;;;10.63;;
65315;SDS011;51920;53.952;10.292;2024-02-28T03:28:22;28.45;;;11.18;;
65315;SDS011;51920;53.952;10.292;2024-02-28T03:30:49;27.08;;;11.13;;
65315;SDS011;51920;53.952;10.292;2024-02-28T03:33:16;27.30;;;10.75;;
65315;SDS011;51920;53.952;10.292;2024-02-28T03:35:43;28.60;;;10.83;;
65315;SDS011;51920;53.952;10.292;2024-02-28T03:38:10;28.48;;;10.23;;
65315;SDS011;51920;53.952;10.292;2024-02-28T03:40:36;30.48;;;11.27;;
65315;SDS011;51920;53.952;10.292;2024-02-28T03:43:03;26.77;;;10.05;;
65315;SDS011;51920;53.952;10.292;2024-02-28T03:45:30;26.23;;;10.90;;
65315;SDS011;51920;53.952;10.292;2024-02-28T03:47:57;26.87;;;10.43;;
65315;SDS011;51920;53.952;10.292;2024-02-28T03:50:24;31.80;;;11.40;;
65315;SDS011;51920;53.952;10.292;2024-02-28T03:52:51;25.75;;;11.13;;
65315;SDS011;51920;53.952;10.292;2024-02-28T03:55:18;26.52;;;10.77;;
65315;SDS011;51920;53.952;10.292;2024-02-28T03:57:48;28.58;;;10.70;;
65315;SDS011;51920;53.952;10.292;2024-02-28T04:00:16;26.90;;;10.63;;
65315;SDS011;51920;53.952;10.292;2024-02-28T04:02:42;27.98;;;10.25;;
65315;SDS011;51920;53.952;10.292;2024-02-28T04:05:09;27.83;;;10.90;;
65315;SDS011;51920;53.952;10.292;2024-02-28T04:07:36;25.63;;;10.10;;
65315;SDS011;51920;53.952;10.292;2024-02-28T04:10:03;27.92;;;11.00;;
65315;SDS011;51920;53.952;10.292;2024-02-28T04:12:31;27.30;;;10.73;;
65315;SDS011;51920;53.952;10.292;2024-02-28T04:14:59;27.13;;;10.35;;
65315;SDS011;51920;53.952;10.292;2024-02-28T04:17:26;28.52;;;10.40;;
65315;SDS011;51920;53.952;10.292;2024-02-28T04:19:53;28.95;;;10.23;;
65315;SDS011;51920;53.952;10.292;2024-02-28T04:22:20;27.70;;;10.48;;
65315;SDS011;51920;53.952;10.292;2024-02-28T04:24:47;27.73;;;10.40;;
65315;SDS011;51920;53.952;10.292;2024-02-28T04:27:14;28.80;;;10.80;;
65315;SDS011;51920;53.952;10.292;2024-02-28T04:29:41;28.65;;;11.00;;
65315;SDS011;51920;53.952;10.292;2024-02-28T04:32:07;28.23;;;10.80;;
65315;SDS011;51920;53.952;10.292;2024-02-28T04:34:35;32.65;;;12.60;;
65315;SDS011;51920;53.952;10.292;2024-02-28T04:37:03;31.37;;;11.43;;
65315;SDS011;51920;53.952;10.292;2024-02-28T04:39:30;33.72;;;12.27;;
65315;SDS011;51920;53.952;10.292;2024-02-28T04:41:57;34.40;;;12.75;;
65315;SDS011;51920;53.952;10.292;2024-02-28T04:44:24;31.80;;;12.30;;
65315;SDS011;51920;53.952;10.292;2024-02-28T04:46:51;29.83;;;10.88;;
65315;SDS011;51920;53.952;10.292;2024-02-28T04:49:18;31.67;;;12.13;;
65315;SDS011;51920;53.952;10.292;2024-02-28T04:51:45;33.08;;;12.13;;
65315;SDS011;51920;53.952;10.292;2024-02-28T04:54:11;32.67;;;13.00;;
65315;SDS011;51920;53.952;10.292;2024-02-28T04:56:39;33.30;;;11.48;;
65315;SDS011;51920;53.952;10.292;2024-02-28T04:59:12;32.70;;;11.70;;
65315;SDS011;51920;53.952;10.292;2024-02-28T05:01:39;33.63;;;12.17;;
65315;SDS011;51920;53.952;10.292;2024-02-28T05:04:08;32.90;;;12.50;;
65315;SDS011;51920;53.952;10.292;2024-02-28T05:06:35;34.53;;;12.77;;
65315;SDS011;51920;53.952;10.292;2024-02-28T05:09:04;38.47;;;13.63;;
65315;SDS011;51920;53.952;10.292;2024-02-28T05:11:31;33.33;;;12.02;;
65315;SDS011;51920;53.952;10.292;2024-02-28T05:13:58;31.73;;;11.77;;
65315;SDS011;51920;53.952;10.292;2024-02-28T05:16:26;34.88;;;11.93;;
65315;SDS011;51920;53.952;10.292;2024-02-28T05:18:53;32.10;;;11.88;;
65315;SDS011;51920;53.952;10.292;2024-02-28T05:21:20;35.08;;;12.13;;
65315;SDS011;51920;53.952;10.292;2024-02-28T05:23:46;33.58;;;12.52;;
65315;SDS011;51920;53.952;10.292;2024-02-28T05:26:13;32.63;;;11.67;;
65315;SDS011;51920;53.952;10.292;2024-02-28T05:28:40;30.55;;;11.48;;
65315;SDS011;51920;53.952;10.292;2024-02-28T05:31:26;37.53;;;12.60;;
65315;SDS011;51920;53.952;10.292;2024-02-28T05:33:54;34.47;;;11.95;;
65315;SDS011;51920;53.952;10.292;2024-02-28T05:36:23;31.90;;;12.30;;
65315;SDS011;51920;53.952;10.292;2024-02-28T05:38:51;30.93;;;11.20;;
65315;SDS011;51920;53.952;10.292;2024-02-28T05:41:20;30.90;;;10.88;;
65315;SDS011;51920;53.952;10.292;2024-02-28T05:43:47;31.77;;;11.40;;
65315;SDS011;51920;53.952;10.292;2024-02-28T05:46:15;29.65;;;11.35;;
65315;SDS011;51920;53.952;10.292;2024-02-28T05:48:44;31.83;;;11.93;;
65315;SDS011;51920;53.952;10.292;2024-02-28T05:51:11;34.03;;;11.67;;
65315;SDS011;51920;53.952;10.292;2024-02-28T05:53:39;28.70;;;10.50;;
65315;SDS011;51920;53.952;10.292;2024-02-28T05:56:07;29.98;;;11.48;;
65315;SDS011;51920;53.952;10.292;2024-02-28T05:58:43;30.58;;;10.75;;
65315;SDS011;51920;53.952;10.292;2024-02-28T06:01:11;29.13;;;11.32;;
65315;SDS011;51920;53.952;10.292;2024-02-28T06:03:41;32.67;;;11.70;;
65315;SDS011;51920;53.952;10.292;2024-02-28T06:06:08;33.38;;;11.32;;
65315;SDS011;51920;53.952;10.292;2024-02-28T06:08:37;32.65;;;12.23;;
65315;SDS011;51920;53.952;10.292;2024-02-28T06:11:06;29.63;;;10.80;;
65315;SDS011;51920;53.952;10.292;2024-02-28T06:13:33;34.42;;;12.00;;
65315;SDS011;51920;53.952;10.292;2024-02-28T06:16:00;30.13;;;11.40;;
65315;SDS011;51920;53.952;10.292;2024-02-28T06:18:27;32.42;;;11.50;;
65315;SDS011;51920;53.952;10.292;2024-02-28T06:20:54;33.70;;;12.40;;
65315;SDS011;51920;53.952;10.292;2024-02-28T06:23:22;33.25;;;11.70;;
65315;SDS011;51920;53.952;10.292;2024-02-28T06:25:53;31.77;;;12.05;;
65315;SDS011;51920;53.952;10.292;2024-02-28T06:28:19;31.63;;;11.50;;
65315;SDS011;51920;53.952;10.292;2024-02-28T06:30:47;33.75;;;12.23;;
65315;SDS011;51920;53.952;10.292;2024-02-28T06:33:14;34.58;;;12.20;;
65315;SDS011;51920;53.952;10.292;2024-02-28T06:35:41;38.03;;;12.18;;
65315;SDS011;51920;53.952;10.292;2024-02-28T06:38:08;36.53;;;12.80;;
65315;SDS011;51920;53.952;10.292;2024-02-28T06:40:35;34.57;;;12.40;;
65315;SDS011;51920;53.952;10.292;2024-02-28T06:43:02;34.63;;;11.63;;
65315;SDS011;51920;53.952;10.292;2024-02-28T06:45:29;35.25;;;12.27;;
65315;SDS011;51920;53.952;10.292;2024-02-28T06:47:57;39.03;;;12.40;;
65315;SDS011;51920;53.952;10.292;2024-02-28T06:50:24;36.35;;;12.13;;
65315;SDS011;51920;53.952;10.292;2024-02-28T06:52:51;35.17;;;12.60;;
65315;SDS011;51920;53.952;10.292;2024-02-28T06:55:20;35.30;;;12.25;;
65315;SDS011;51920;53.952;10.292;2024-02-28T06:57:47;38.65;;;13.27;;
65315;SDS011;51920;53.952;10.292;2024-02-28T07:00:14;39.05;;;13.48;;
65315;SDS011;51920;53.952;10.292;2024-02-28T07:02:42;35.08;;;12.60;;
65315;SDS011;51920;53.952;10.292;2024-02-28T07:05:10;36.33;;;12.83;;
65315;SDS011;51920;53.952;10.292;2024-02-28T07:07:37;35.70;;;12.63;;
65315;SDS011;51920;53.952;10.292;2024-02-28T07:10:04;36.67;;;13.80;;
65315;SDS011;51920;53.952;10.292;2024-02-28T07:12:31;34.35;;;12.02;;
65315;SDS011;51920;53.952;10.292;2024-02-28T07:14:58;36.80;;;13.13;;
65315;SDS011;51920;53.952;10.292;2024-02-28T07:17:25;34.03;;;12.10;;
65315;SDS011;51920;53.952;10.292;2024-02-28T07:19:53;37.80;;;13.32;;
65315;SDS011;51920;53.952;10.292;2024-02-28T07:22:19;36.80;;;12.43;;
65315;SDS011;51920;53.952;10.292;2024-02-28T07:24:47;35.50;;;12.60;;
65315;SDS011;51920;53.952;10.292;2024-02-28T07:27:14;37.28;;;13.23;;
65315;SDS011;51920;53.952;10.292;2024-02-28T07:29:42;37.20;;;13.27;;
65315;SDS011;51920;53.952;10.292;2024-02-28T07:32:10;38.83;;;12.85;;
65315;SDS011;51920;53.952;10.292;2024-02-28T07:34:37;36.67;;;12.85;;
65315;SDS011;51920;53.952;10.292;2024-02-28T07:37:05;36.60;;;12.93;;
65315;SDS011;51920;53.952;10.292;2024-02-28T07:39:32;35.83;;;12.75;;
65315;SDS011;51920;53.952;10.292;2024-02-28T07:41:59;39.77;;;13.60;;
65315;SDS011;51920;53.952;10.292;2024-02-28T07:44:27;37.05;;;13.27;;
65315;SDS011;51920;53.952;10.292;2024-02-28T07:46:57;37.92;;;13.43;;
65315;SDS011;51920;53.952;10.292;2024-02-28T07:49:25;37.90;;;13.68;;
65315;SDS011;51920;53.952;10.292;2024-02-28T07:51:53;37.55;;;12.63;;
65315;SDS011;51920;53.952;10.292;2024-02-28T07:54:21;34.90;;;12.23;;
65315;SDS011;51920;53.952;10.292;2024-02-28T07:56:48;33.92;;;13.00;;
65315;SDS011;51920;53.952;10.292;2024-02-28T07:59:15;37.72;;;13.60;;
65315;SDS011;51920;53.952;10.292;2024-02-28T08:01:42;37.00;;;13.10;;
65315;SDS011;51920;53.952;10.292;2024-02-28T08:04:09;40.15;;;14.18;;
65315;SDS011;51920;53.952;10.292;2024-02-28T08:06:36;36.10;;;13.03;;
65315;SDS011;51920;53.952;10.292;2024-02-28T08:09:03;36.33;;;12.98;;
65315;SDS011;51920;53.952;10.292;2024-02-28T08:11:30;39.35;;;13.68;;
65315;SDS011;51920;53.952;10.292;2024-02-28T08:13:57;35.67;;;12.88;;
65315;SDS011;51920;53.952;10.292;2024-02-28T08:16:24;36.28;;;13.30;;
65315;SDS011;51920;53.952;10.292;2024-02-28T08:18:52;34.57;;;12.93;;
65315;SDS011;51920;53.952;10.292;2024-02-28T08:21:19;33.95;;;13.15;;
65315;SDS011;51920;53.952;10.292;2024-02-28T08:23:46;34.55;;;13.35;;
65315;SDS011;51920;53.952;10.292;2024-02-28T08:26:14;32.05;;;12.52;;
65315;SDS011;51920;53.952;10.292;2024-02-28T08:28:41;34.75;;;12.10;;
65315;SDS011;51920;53.952;10.292;2024-02-28T08:31:07;31.83;;;12.53;;
65315;SDS011;51920;53.952;10.292;2024-02-28T08:33:34;31.90;;;12.55;;
65315;SDS011;51920;53.952;10.292;2024-02-28T08:36:01;30.10;;;12.68;;
65315;SDS011;51920;53.952;10.292;2024-02-28T08:38:28;27.70;;;11.40;;
65315;SDS011;51920;53.952;10.292;2024-02-28T08:40:55;29.85;;;11.82;;
65315;SDS011;51920;53.952;10.292;2024-02-28T08:43:22;29.27;;;12.23;;
65315;SDS011;51920;53.952;10.292;2024-02-28T08:45:49;28.55;;;11.43;;
65315;SDS011;51920;53.952;10.292;2024-02-28T08:48:18;31.05;;;12.10;;
65315;SDS011;51920;53.952;10.292;2024-02-28T08:50:45;27.80;;;11.45;;
65315;SDS011;51920;53.952;10.292;2024-02-28T08:53:12;26.38;;;11.70;;
65315;SDS011;51920;53.952;10.292;2024-02-28T08:55:38;29.33;;;11.23;;
65315;SDS011;51920;53.952;10.292;2024-02-28T08:58:05;26.63;;;11.68;;
65315;SDS011;51920;53.952;10.292;2024-02-28T09:00:32;27.60;;;11.75;;
65315;SDS011;51920;53.952;10.292;2024-02-28T09:02:59;24.17;;;10.63;;
65315;SDS011;51920;53.952;10.292;2024-02-28T09:05:26;28.52;;;11.95;;
65315;SDS011;51920;53.952;10.292;2024-02-28T09:07:53;27.17;;;11.33;;
65315;SDS011;51920;53.952;10.292;2024-02-28T09:10:21;25.17;;;11.80;;
65315;SDS011;51920;53.952;10.292;2024-02-28T09:12:50;25.15;;;11.25;;
65315;SDS011;51920;53.952;10.292;2024-02-28T09:15:17;26.17;;;11.68;;
65315;SDS011;51920;53.952;10.292;2024-02-28T09:17:44;26.80;;;11.10;;
65315;SDS011;51920;53.952;10.292;2024-02-28T09:20:11;27.37;;;11.43;;
65315;SDS011;51920;53.952;10.292;2024-02-28T09:22:38;26.08;;;10.38;;
65315;SDS011;51920;53.952;10.292;2024-02-28T09:25:06;27.45;;;11.70;;
65315;SDS011;51920;53.952;10.292;2024-02-28T09:27:36;26.17;;;11.02;;
65315;SDS011;51920;53.952;10.292;2024-02-28T09:30:03;26.92;;;11.35;;
65315;SDS011;51920;53.952;10.292;2024-02-28T09:32:31;24.23;;;10.07;;
65315;SDS011;51920;53.952;10.292;2024-02-28T09:34:58;22.63;;;10.07;;
65315;SDS011;51920;53.952;10.292;2024-02-28T09:37:25;22.40;;;10.48;;
65315;SDS011;51920;53.952;10.292;2024-02-28T09:39:52;24.27;;;11.10;;
65315;SDS011;51920;53.952;10.292;2024-02-28T09:42:19;23.70;;;10.70;;
65315;SDS011;51920;53.952;10.292;2024-02-28T09:44:46;20.53;;;10.60;;
65315;SDS011;51920;53.952;10.292;2024-02-28T09:47:14;21.95;;;10.73;;
65315;SDS011;51920;53.952;10.292;2024-02-28T09:49:41;21.30;;;11.48;;
65315;SDS011;51920;53.952;10.292;2024-02-28T09:52:09;21.33;;;11.05;;
65315;SDS011;51920;53.952;10.292;2024-02-28T09:54:36;22.85;;;11.90;;
65315;SDS011;51920;53.952;10.292;2024-02-28T09:57:03;20.67;;;9.93;;
65315;SDS011;51920;53.952;10.292;2024-02-28T09:59:31;19.98;;;10.82;;
65315;SDS011;51920;53.952;10.292;2024-02-28T10:02:00;21.83;;;11.52;;
65315;SDS011;51920;53.952;10.292;2024-02-28T10:04:28;25.45;;;12.40;;
65315;SDS011;51920;53.952;10.292;2024-02-28T10:06:56;24.77;;;12.18;;
65315;SDS011;51920;53.952;10.292;2024-02-28T10:09:23;24.50;;;11.63;;
65315;SDS011;51920;53.952;10.292;2024-02-28T10:11:53;24.13;;;12.25;;
65315;SDS011;51920;53.952;10.292;2024-02-28T10:14:20;27.20;;;12.27;;
65315;SDS011;51920;53.952;10.292;2024-02-28T10:16:47;25.70;;;11.80;;
65315;SDS011;51920;53.952;10.292;2024-02-28T10:19:14;26.50;;;12.57;;
65315;SDS011;51920;53.952;10.292;2024-02-28T10:21:41;27.40;;;12.47;;
65315;SDS011;51920;53.952;10.292;2024-02-28T10:24:08;28.58;;;11.88;;
65315;SDS011;51920;53.952;10.292;2024-02-28T10:26:45;29.73;;;12.63;;
65315;SDS011;51920;53.952;10.292;2024-02-28T10:29:24;24.15;;;11.35;;
65315;SDS011;51920;53.952;10.292;2024-02-28T10:31:51;28.77;;;13.27;;
65315;SDS011;51920;53.952;10.292;2024-02-28T10:34:19;28.17;;;12.47;;
65315;SDS011;51920;53.952;10.292;2024-02-28T10:36:46;28.13;;;12.35;;
65315;SDS011;51920;53.952;10.292;2024-02-28T10:39:13;29.33;;;12.85;;
65315;SDS011;51920;53.952;10.292;2024-02-28T10:41:41;26.95;;;12.10;;
65315;SDS011;51920;53.952;10.292;2024-02-28T10:44:09;27.33;;;12.00;;
65315;SDS011;51920;53.952;10.292;2024-02-28T10:46:38;27.73;;;12.10;;
65315;SDS011;51920;53.952;10.292;2024-02-28T10:49:05;28.70;;;11.73;;
65315;SDS011;51920;53.952;10.292;2024-02-28T10:51:34;27.45;;;12.05;;
65315;SDS011;51920;53.952;10.292;2024-02-28T10:54:12;28.45;;;12.57;;
65315;SDS011;51920;53.952;10.292;2024-02-28T10:56:40;27.52;;;12.20;;
65315;SDS011;51920;53.952;10.292;2024-02-28T10:59:09;27.30;;;11.30;;
65315;SDS011;51920;53.952;10.292;2024-02-28T11:01:37;27.88;;;11.50;;
65315;SDS011;51920;53.952;10.292;2024-02-28T11:04:15;25.55;;;11.57;;
65315;SDS011;51920;53.952;10.292;2024-02-28T11:07:18;25.08;;;12.02;;
65315;SDS011;51920;53.952;10.292;2024-02-28T11:09:40;27.80;;;11.73;;
65315;SDS011;51920;53.952;10.292;2024-02-28T11:12:07;28.50;;;13.10;;
65315;SDS011;51920;53.952;10.292;2024-02-28T11:14:57;29.70;;;12.07;;
65315;SDS011;51920;53.952;10.292;2024-02-28T11:17:29;25.65;;;12.07;;
65315;SDS011;51920;53.952;10.292;2024-02-28T11:19:57;27.40;;;12.15;;
65315;SDS011;51920;53.952;10.292;2024-02-28T11:22:28;26.80;;;12.38;;
65315;SDS011;51920;53.952;10.292;2024-02-28T11:24:55;24.47;;;11.67;;
65315;SDS011;51920;53.952;10.292;2024-02-28T11:27:22;26.88;;;11.32;;
65315;SDS011;51920;53.952;10.292;2024-02-28T11:29:50;23.17;;;10.07;;
65315;SDS011;51920;53.952;10.292;2024-02-28T11:32:17;23.65;;;9.95;;
65315;SDS011;51920;53.952;10.292;2024-02-28T11:34:44;21.08;;;9.93;;
65315;SDS011;51920;53.952;10.292;2024-02-28T11:37:12;23.93;;;10.07;;
65315;SDS011;51920;53.952;10.292;2024-02-28T11:39:39;23.13;;;10.27;;
65315;SDS011;51920;53.952;10.292;2024-02-28T11:42:09;22.05;;;10.52;;
65315;SDS011;51920;53.952;10.292;2024-02-28T11:44:37;21.83;;;10.15;;
65315;SDS011;51920;53.952;10.292;2024-02-28T11:47:04;24.05;;;10.95;;
65315;SDS011;51920;53.952;10.292;2024-02-28T11:49:32;23.80;;;11.10;;
65315;SDS011;51920;53.952;10.292;2024-02-28T11:52:00;26.77;;;11.07;;
65315;SDS011;51920;53.952;10.292;2024-02-28T11:54:27;24.38;;;11.85;;
65315;SDS011;51920;53.952;10.292;2024-02-28T11:56:54;25.80;;;11.80;;
65315;SDS011;51920;53.952;10.292;2024-02-28T11:59:22;23.48;;;10.93;;
65315;SDS011;51920;53.952;10.292;2024-02-28T12:01:49;23.50;;;10.87;;
65315;SDS011;51920;53.952;10.292;2024-02-28T12:04:18;26.63;;;11.45;;
65315;SDS011;51920;53.952;10.292;2024-02-28T12:06:45;23.42;;;11.30;;
65315;SDS011;51920;53.952;10.292;2024-02-28T12:09:12;25.77;;;11.70;;
65315;SDS011;51920;53.952;10.292;2024-02-28T12:11:43;23.02;;;11.13;;
65315;SDS011;51920;53.952;10.292;2024-02-28T12:14:11;24.67;;;11.27;;
65315;SDS011;51920;53.952;10.292;2024-02-28T12:16:39;26.42;;;11.82;;
65315;SDS011;51920;53.952;10.292;2024-02-28T12:19:07;26.15;;;12.27;;
65315;SDS011;51920;53.952;10.292;2024-02-28T12:21:37;25.90;;;11.35;;
65315;SDS011;51920;53.952;10.292;2024-02-28T12:24:08;22.80;;;10.93;;
65315;SDS011;51920;53.952;10.292;2024-02-28T12:26:36;26.40;;;11.70;;
65315;SDS011;51920;53.952;10.292;2024-02-28T12:29:04;24.58;;;11.38;;
65315;SDS011;51920;53.952;10.292;2024-02-28T12:31:31;29.85;;;12.70;;
65315;SDS011;51920;53.952;10.292;2024-02-28T12:33:58;28.20;;;12.32;;
65315;SDS011;51920;53.952;10.292;2024-02-28T12:36:24;27.17;;;12.45;;
65315;SDS011;51920;53.952;10.292;2024-02-28T12:38:53;29.53;;;12.53;;
65315;SDS011;51920;53.952;10.292;2024-02-28T12:41:20;27.75;;;13.00;;
65315;SDS011;51920;53.952;10.292;2024-02-28T12:43:47;30.60;;;12.98;;
65315;SDS011;51920;53.952;10.292;2024-02-28T12:46:13;32.28;;;13.25;;
65315;SDS011;51920;53.952;10.292;2024-02-28T12:48:40;30.40;;;13.70;;
65315;SDS011;51920;53.952;10.292;2024-02-28T12:51:11;29.90;;;13.17;;
65315;SDS011;51920;53.952;10.292;2024-02-28T12:53:46;27.58;;;12.32;;
65315;SDS011;51920;53.952;10.292;2024-02-28T12:56:17;28.90;;;12.60;;
65315;SDS011;51920;53.952;10.292;2024-02-28T12:58:44;32.38;;;13.32;;
65315;SDS011;51920;53.952;10.292;2024-02-28T13:01:11;28.17;;;12.68;;
65315;SDS011;51920;53.952;10.292;2024-02-28T13:03:38;29.07;;;13.60;;
65315;SDS011;51920;53.952;10.292;2024-02-28T13:06:05;29.45;;;12.57;;
65315;SDS011;51920;53.952;10.292;2024-02-28T13:08:32;29.15;;;13.32;;
65315;SDS011;51920;53.952;10.292;2024-02-28T13:10:59;28.98;;;12.98;;
65315;SDS011;51920;53.952;10.292;2024-02-28T13:13:25;26.77;;;12.50;;
65315;SDS011;51920;53.952;10.292;2024-02-28T13:15:52;27.27;;;12.17;;
65315;SDS011;51920;53.952;10.292;2024-02-28T13:18:19;28.25;;;13.30;;
65315;SDS011;51920;53.952;10.292;2024-02-28T13:20:46;28.23;;;12.38;;
65315;SDS011;51920;53.952;10.292;2024-02-28T13:23:13;26.65;;;12.38;;
65315;SDS011;51920;53.952;10.292;2024-02-28T13:25:40;28.15;;;12.85;;
65315;SDS011;51920;53.952;10.292;2024-02-28T13:28:07;27.23;;;11.93;;
65315;SDS011;51920;53.952;10.292;2024-02-28T13:30:34;28.67;;;12.13;;
65315;SDS011;51920;53.952;10.292;2024-02-28T13:33:03;31.65;;;13.00;;
65315;SDS011;51920;53.952;10.292;2024-02-28T13:35:30;29.13;;;13.18;;
65315;SDS011;51920;53.952;10.292;2024-02-28T13:37:57;28.25;;;12.95;;
65315;SDS011;51920;53.952;10.292;2024-02-28T13:40:28;28.77;;;12.47;;
65315;SDS011;51920;53.952;10.292;2024-02-28T13:42:55;27.60;;;12.18;;
65315;SDS011;51920;53.952;10.292;2024-02-28T13:45:21;29.73;;;12.30;;
65315;SDS011;51920;53.952;10.292;2024-02-28T13:47:48;27.58;;;11.15;;
65315;SDS011;51920;53.952;10.292;2024-02-28T13:50:15;26.02;;;11.70;;
65315;SDS011;51920;53.952;10.292;2024-02-28T13:52:42;25.17;;;10.87;;
65315;SDS011;51920;53.952;10.292;2024-02-28T13:55:09;26.55;;;10.50;;
65315;SDS011;51920;53.952;10.292;2024-02-28T13:57:36;22.08;;;10.20;;
65315;SDS011;51920;53.952;10.292;2024-02-28T14:00:03;19.52;;;8.75;;
65315;SDS011;51920;53.952;10.292;2024-02-28T14:02:36;16.65;;;8.63;;
65315;SDS011;51920;53.952;10.292;2024-02-28T14:05:03;18.10;;;8.17;;
65315;SDS011;51920;53.952;10.292;2024-02-28T14:07:30;17.08;;;8.55;;
65315;SDS011;51920;53.952;10.292;2024-02-28T14:09:57;18.30;;;9.20;;
65315;SDS011;51920;53.952;10.292;2024-02-28T14:12:25;17.88;;;9.10;;